createdAt,value
2018-12-17T00:00:35.152Z,7.30
2018-12-17T00:02:37.769Z,7.50
2018-12-17T00:04:40.331Z,7.50
2018-12-17T00:06:43.034Z,7.30
2018-12-17T00:08:45.878Z,7.40
2018-12-17T00:10:48.470Z,7.40
2018-12-17T00:12:51.156Z,7.40
2018-12-17T00:14:53.795Z,7.40
2018-12-17T00:16:56.373Z,7.50
2018-12-17T00:18:59.029Z,7.50
2018-12-17T00:21:01.662Z,7.50
2018-12-17T00:23:04.570Z,7.50
2018-12-17T00:25:07.194Z,7.50
2018-12-17T00:27:09.818Z,7.50
2018-12-17T00:29:13.398Z,7.50
2018-12-17T00:31:16.002Z,7.50
2018-12-17T00:33:18.687Z,7.50
2018-12-17T00:35:21.319Z,7.50
2018-12-17T00:37:24.675Z,7.30
2018-12-17T00:39:27.231Z,7.10
2018-12-17T00:41:29.789Z,7.00
2018-12-17T00:43:32.563Z,7.10
2018-12-17T00:45:35.288Z,7.20
2018-12-17T00:47:37.850Z,7.30
2018-12-17T00:49:40.390Z,7.40
2018-12-17T00:51:43.073Z,7.40
2018-12-17T00:53:45.622Z,7.50
2018-12-17T00:55:48.170Z,7.50
2018-12-17T00:57:50.740Z,7.50
2018-12-17T00:59:53.258Z,7.50
2018-12-17T01:01:57.037Z,7.40
2018-12-17T01:03:59.681Z,7.30
2018-12-17T01:06:02.330Z,7.30
2018-12-17T01:08:04.939Z,7.30
2018-12-17T01:10:07.674Z,7.40
2018-12-17T01:12:10.378Z,7.40
2018-12-17T01:14:12.969Z,7.50
2018-12-17T01:16:15.606Z,7.50
2018-12-17T01:18:18.209Z,7.50
2018-12-17T01:20:20.750Z,7.50
2018-12-17T01:22:23.303Z,7.50
2018-12-17T01:24:25.844Z,7.50
2018-12-17T01:26:28.625Z,7.30
2018-12-17T01:28:31.215Z,7.30
2018-12-17T01:30:33.903Z,7.30
2018-12-17T01:32:36.626Z,7.30
2018-12-17T01:34:39.234Z,7.30
2018-12-17T01:36:41.833Z,7.40
2018-12-17T01:38:45.027Z,7.50
2018-12-17T01:40:47.752Z,7.50
2018-12-17T01:42:50.298Z,7.60
2018-12-17T01:44:52.871Z,7.60
2018-12-17T01:46:55.534Z,7.60
2018-12-17T01:48:58.065Z,7.70
2018-12-17T01:51:00.685Z,7.60
2018-12-17T01:53:03.213Z,7.50
2018-12-17T01:55:05.834Z,7.50
2018-12-17T01:57:08.517Z,7.40
2018-12-17T01:59:11.224Z,7.20
2018-12-17T02:01:13.825Z,7.10
2018-12-17T02:03:16.405Z,7.20
2018-12-17T02:05:19.049Z,7.20
2018-12-17T02:07:21.604Z,7.20
2018-12-17T02:09:24.169Z,7.30
2018-12-17T02:11:26.748Z,7.30
2018-12-17T02:13:29.347Z,7.40
2018-12-17T02:15:31.995Z,7.30
2018-12-17T02:17:34.835Z,7.10
2018-12-17T02:19:37.365Z,7.10
2018-12-17T02:21:39.873Z,7.20
2018-12-17T02:23:42.441Z,7.20
2018-12-17T02:25:44.993Z,7.30
2018-12-17T02:27:47.623Z,7.40
2018-12-17T02:29:50.717Z,7.50
2018-12-17T02:31:53.336Z,7.50
2018-12-17T02:33:56.136Z,7.50
2018-12-17T02:35:58.696Z,7.40
2018-12-17T02:38:01.306Z,7.50
2018-12-17T02:40:05.037Z,7.40
2018-12-17T02:42:07.734Z,7.20
2018-12-17T02:44:10.905Z,7.00
2018-12-17T02:46:13.442Z,6.70
2018-12-17T02:48:16.028Z,6.70
2018-12-17T02:50:18.576Z,6.70
2018-12-17T02:52:21.134Z,6.70
2018-12-17T02:54:23.678Z,7.00
2018-12-17T02:56:26.233Z,7.00
2018-12-17T02:58:28.967Z,7.10
2018-12-17T03:00:31.647Z,7.30
2018-12-17T03:02:34.190Z,7.40
2018-12-17T03:04:36.717Z,7.40
2018-12-17T03:06:39.240Z,7.50
2018-12-17T03:08:41.991Z,7.50
2018-12-17T03:10:44.544Z,7.60
2018-12-17T03:12:47.127Z,7.60
2018-12-17T03:14:49.690Z,7.60
2018-12-17T03:16:52.517Z,7.50
2018-12-17T03:18:55.125Z,7.50
2018-12-17T03:20:57.694Z,7.50
2018-12-17T03:23:00.320Z,7.50
2018-12-17T03:27:11.793Z,7.50
2018-12-17T03:29:14.324Z,7.20
2018-12-17T03:31:17.075Z,7.20
2018-12-17T03:33:19.713Z,7.30
2018-12-17T03:35:22.334Z,7.40
2018-12-17T03:37:24.941Z,7.50
2018-12-17T03:39:27.542Z,7.50
2018-12-17T03:41:30.244Z,7.60
2018-12-17T03:43:32.833Z,7.50
2018-12-17T03:45:35.371Z,7.50
2018-12-17T03:47:37.910Z,7.60
2018-12-17T03:49:40.461Z,7.40
2018-12-17T03:51:43.029Z,7.00
2018-12-17T03:53:45.585Z,6.60
2018-12-17T03:55:48.293Z,6.10
2018-12-17T03:57:51.055Z,6.00
2018-12-17T03:59:53.716Z,6.40
2018-12-17T04:01:56.922Z,6.70
2018-12-17T04:03:59.480Z,7.00
2018-12-17T04:06:02.016Z,7.00
2018-12-17T04:08:04.630Z,7.00
2018-12-17T04:10:07.238Z,7.10
2018-12-17T04:12:09.802Z,7.20
2018-12-17T04:14:12.366Z,7.20
2018-12-17T04:16:15.003Z,7.00
2018-12-17T04:18:17.607Z,7.00
2018-12-17T04:20:20.138Z,7.10
2018-12-17T04:22:22.842Z,6.80
2018-12-17T04:24:25.736Z,6.90
2018-12-17T04:26:28.272Z,7.00
2018-12-17T04:28:30.801Z,7.10
2018-12-17T04:30:33.328Z,7.10
2018-12-17T04:32:35.867Z,7.20
2018-12-17T04:34:38.447Z,7.10
2018-12-17T04:36:40.980Z,7.10
2018-12-17T04:38:43.513Z,8.00
2018-12-17T04:40:46.090Z,6.90
2018-12-17T04:42:48.692Z,6.80
2018-12-17T04:44:51.240Z,6.90
2018-12-17T04:46:53.841Z,7.00
2018-12-17T04:48:56.398Z,7.20
2018-12-17T04:50:58.916Z,7.20
2018-12-17T04:53:01.642Z,7.20
2018-12-17T04:55:04.405Z,7.20
2018-12-17T04:57:06.954Z,7.20
2018-12-17T04:59:14.512Z,6.70
2018-12-17T05:01:14.223Z,6.20
2018-12-17T05:03:16.944Z,5.80
2018-12-17T05:05:19.514Z,5.40
2018-12-17T05:07:22.026Z,5.70
2018-12-17T05:09:24.578Z,6.00
2018-12-17T05:11:27.103Z,6.20
2018-12-17T05:13:29.651Z,6.10
2018-12-17T05:15:32.317Z,6.30
2018-12-17T05:17:35.029Z,6.50
2018-12-17T05:19:37.707Z,6.60
2018-12-17T05:23:49.191Z,6.40
2018-12-17T05:25:51.898Z,6.50
2018-12-17T05:27:54.420Z,6.50
2018-12-17T05:29:57.286Z,6.50
2018-12-17T05:31:59.804Z,6.40
2018-12-17T05:34:02.682Z,6.00
2018-12-17T05:36:05.472Z,5.90
2018-12-17T05:38:08.144Z,5.80
2018-12-17T05:40:10.709Z,6.00
2018-12-17T05:42:13.305Z,6.30
2018-12-17T05:44:15.849Z,6.40
2018-12-17T05:46:18.449Z,6.60
2018-12-17T05:48:20.965Z,6.70
2018-12-17T05:50:23.558Z,6.80
2018-12-17T05:52:26.111Z,6.30
2018-12-17T05:54:28.733Z,6.90
2018-12-17T05:56:31.567Z,6.80
2018-12-17T05:58:34.087Z,6.60
2018-12-17T06:00:36.679Z,6.60
2018-12-17T06:02:39.190Z,6.70
2018-12-17T06:04:41.817Z,6.70
2018-12-17T06:06:44.403Z,6.60
2018-12-17T06:08:47.162Z,6.20
2018-12-17T06:10:49.838Z,5.90
2018-12-17T06:12:52.421Z,6.20
2018-12-17T06:14:55.027Z,6.50
2018-12-17T06:16:57.566Z,6.50
2018-12-17T06:19:00.099Z,6.60
2018-12-17T06:21:02.649Z,6.70
2018-12-17T06:23:05.245Z,6.70
2018-12-17T06:25:07.829Z,6.20
2018-12-17T06:27:10.527Z,6.00
2018-12-17T06:29:13.195Z,6.10
2018-12-17T06:31:15.834Z,6.00
2018-12-17T06:33:18.595Z,6.00
2018-12-17T06:35:21.210Z,6.10
2018-12-17T06:37:23.877Z,5.80
2018-12-17T06:39:26.635Z,5.50
2018-12-17T06:41:29.212Z,5.40
2018-12-17T06:43:31.734Z,5.40
2018-12-17T06:45:34.326Z,5.70
2018-12-17T06:47:36.874Z,5.40
2018-12-17T06:49:39.436Z,5.30
2018-12-17T06:51:42.390Z,5.40
2018-12-17T06:53:44.946Z,5.30
2018-12-17T06:55:47.474Z,5.70
2018-12-17T06:57:50.245Z,6.00
2018-12-17T06:59:52.861Z,5.40
2018-12-17T07:01:55.482Z,5.20
2018-12-17T07:03:58.101Z,5.60
2018-12-17T07:06:00.665Z,5.90
2018-12-17T07:08:03.273Z,6.00
2018-12-17T07:10:05.950Z,5.90
2018-12-17T07:12:08.625Z,5.90
2018-12-17T07:14:11.149Z,5.40
2018-12-17T07:16:13.846Z,5.40
2018-12-17T07:18:16.373Z,5.60
2018-12-17T07:20:18.936Z,5.90
2018-12-17T07:22:21.573Z,6.10
2018-12-17T07:24:24.230Z,6.30
2018-12-17T07:26:26.759Z,6.40
2018-12-17T07:28:29.341Z,6.50
2018-12-17T07:30:31.853Z,6.60
2018-12-17T07:32:34.461Z,6.70
2018-12-17T07:34:37.500Z,6.70
2018-12-17T07:36:40.247Z,6.80
2018-12-17T07:38:42.874Z,6.80
2018-12-17T07:40:45.394Z,6.90
2018-12-17T07:42:48.089Z,6.60
2018-12-17T07:44:50.705Z,6.40
2018-12-17T07:46:53.454Z,6.40
2018-12-17T07:48:55.997Z,6.50
2018-12-17T07:50:58.681Z,6.60
2018-12-17T07:53:01.246Z,6.70
2018-12-17T07:55:04.489Z,6.70
2018-12-17T07:57:07.074Z,6.80
2018-12-17T07:59:09.617Z,6.90
2018-12-17T08:01:12.264Z,6.90
2018-12-17T08:03:14.831Z,6.80
2018-12-17T08:05:17.422Z,6.80
2018-12-17T08:07:19.946Z,6.90
2018-12-17T08:09:22.474Z,7.00
2018-12-17T08:11:25.142Z,7.00
2018-12-17T08:13:27.922Z,6.90
2018-12-17T08:15:30.468Z,6.90
2018-12-17T08:17:34.114Z,7.00
2018-12-17T08:19:36.725Z,6.90
2018-12-17T08:21:39.358Z,6.80
2018-12-17T08:23:41.995Z,6.90
2018-12-17T08:25:44.652Z,7.10
2018-12-17T08:27:47.985Z,7.10
2018-12-17T08:29:50.550Z,7.00
2018-12-17T08:31:53.143Z,6.80
2018-12-17T08:33:55.661Z,6.90
2018-12-17T08:35:58.466Z,6.90
2018-12-17T08:38:00.998Z,6.80
2018-12-17T08:40:04.024Z,7.00
2018-12-17T08:42:06.793Z,7.10
2018-12-17T08:44:09.579Z,7.20
2018-12-17T08:46:12.761Z,6.90
2018-12-17T08:48:15.285Z,6.90
2018-12-17T08:50:17.869Z,7.00
2018-12-17T08:52:20.541Z,6.90
2018-12-17T08:54:23.143Z,7.00
2018-12-17T08:56:25.897Z,7.00
2018-12-17T08:58:28.618Z,6.90
2018-12-17T09:00:31.255Z,6.90
2018-12-17T09:02:33.825Z,6.50
2018-12-17T09:04:36.435Z,6.70
2018-12-17T09:06:39.213Z,7.00
2018-12-17T09:08:41.783Z,6.90
2018-12-17T09:10:44.500Z,6.80
2018-12-17T09:12:47.118Z,6.80
2018-12-17T09:14:49.665Z,7.10
2018-12-17T09:16:52.273Z,7.30
2018-12-17T09:18:54.928Z,7.50
2018-12-17T09:20:57.545Z,7.40
2018-12-17T09:23:00.168Z,7.40
2018-12-17T09:25:03.249Z,7.60
2018-12-17T09:27:05.814Z,7.70
2018-12-17T09:29:08.652Z,7.70
2018-12-17T09:31:11.167Z,7.80
2018-12-17T09:33:13.797Z,7.80
2018-12-17T09:35:16.306Z,7.60
2018-12-17T09:37:18.953Z,7.40
2018-12-17T09:39:21.548Z,7.40
2018-12-17T09:41:24.094Z,7.60
2018-12-17T09:43:26.841Z,7.60
2018-12-17T09:45:29.974Z,7.60
2018-12-17T09:47:32.511Z,7.60
2018-12-17T09:49:35.062Z,7.70
2018-12-17T09:51:37.622Z,7.90
2018-12-17T09:53:40.262Z,8.00
2018-12-17T09:55:42.797Z,7.60
2018-12-17T09:57:45.475Z,7.60
2018-12-17T09:59:48.157Z,7.80
2018-12-17T10:01:50.697Z,8.00
2018-12-17T10:03:53.312Z,8.10
2018-12-17T10:05:55.858Z,8.20
2018-12-17T10:07:58.441Z,7.60
2018-12-17T10:10:01.063Z,7.60
2018-12-17T10:12:03.793Z,7.90
2018-12-17T10:14:06.345Z,7.80
2018-12-17T10:16:08.973Z,7.70
2018-12-17T10:18:11.705Z,7.90
2018-12-17T10:20:14.250Z,8.20
2018-12-17T10:22:16.880Z,8.10
2018-12-17T10:24:19.486Z,8.30
2018-12-17T10:26:22.378Z,8.40
2018-12-17T10:28:24.882Z,8.50
2018-12-17T10:30:32.442Z,8.70
2018-12-17T10:32:31.973Z,8.30
2018-12-17T10:34:34.688Z,8.20
2018-12-17T10:36:37.382Z,8.30
2018-12-17T10:38:39.949Z,8.20
2018-12-17T10:40:42.605Z,8.00
2018-12-17T10:42:45.306Z,8.40
2018-12-17T10:44:47.990Z,8.60
2018-12-17T10:46:50.714Z,8.70
2018-12-17T10:48:53.249Z,8.80
2018-12-17T10:50:55.797Z,9.00
2018-12-17T10:52:58.330Z,9.00
2018-12-17T10:55:00.866Z,8.80
2018-12-17T10:57:03.590Z,8.40
2018-12-17T10:59:06.129Z,8.40
2018-12-17T11:01:14.419Z,8.20
2018-12-17T11:03:26.068Z,8.10
2018-12-17T11:05:29.070Z,8.30
2018-12-17T11:07:31.599Z,8.60
2018-12-17T11:09:34.158Z,8.40
2018-12-17T11:11:36.781Z,8.20
2018-12-17T11:13:39.296Z,8.50
2018-12-17T11:15:41.958Z,8.70
2018-12-17T11:17:44.782Z,8.80
2018-12-17T11:19:47.682Z,8.80
2018-12-17T11:21:50.328Z,8.70
2018-12-17T11:23:52.846Z,8.60
2018-12-17T11:25:55.453Z,8.70
2018-12-17T11:27:57.983Z,8.80
2018-12-17T11:30:00.630Z,9.00
2018-12-17T11:32:03.369Z,9.20
2018-12-17T11:34:05.883Z,8.90
2018-12-17T11:36:08.573Z,8.90
2018-12-17T11:38:11.138Z,9.00
2018-12-17T11:40:13.669Z,9.10
2018-12-17T11:42:16.600Z,8.40
2018-12-17T11:44:19.110Z,8.60
2018-12-17T11:46:21.734Z,8.30
2018-12-17T11:48:24.585Z,8.10
2018-12-17T11:50:27.325Z,8.10
2018-12-17T11:52:29.975Z,8.30
2018-12-17T11:54:32.676Z,8.10
2018-12-17T11:56:40.130Z,8.00
2018-12-17T11:58:42.665Z,8.40
2018-12-17T12:00:53.505Z,8.00
2018-12-17T12:02:51.541Z,6.40
2018-12-17T12:04:54.068Z,7.90
2018-12-17T12:06:56.646Z,7.90
2018-12-17T12:08:59.213Z,8.20
2018-12-17T12:11:01.758Z,8.10
2018-12-17T12:13:04.446Z,7.90
2018-12-17T12:15:07.101Z,7.90
2018-12-17T12:17:09.753Z,8.00
2018-12-17T12:19:12.285Z,7.90
2018-12-17T12:21:14.937Z,7.70
2018-12-17T12:23:17.461Z,7.90
2018-12-17T12:25:20.088Z,8.30
2018-12-17T12:27:22.831Z,8.00
2018-12-17T12:29:25.462Z,7.60
2018-12-17T12:31:28.044Z,7.30
2018-12-17T12:33:30.748Z,7.60
2018-12-17T12:35:33.321Z,7.70
2018-12-17T12:37:35.854Z,7.80
2018-12-17T12:39:38.475Z,8.20
2018-12-17T12:41:40.995Z,8.00
2018-12-17T12:43:43.521Z,7.80
2018-12-17T12:45:46.123Z,7.60
2018-12-17T12:47:48.769Z,7.80
2018-12-17T12:49:51.527Z,8.30
2018-12-17T12:51:54.145Z,8.00
2018-12-17T12:53:56.837Z,8.10
2018-12-17T12:55:59.464Z,7.90
2018-12-17T12:58:03.777Z,7.80
2018-12-17T13:00:08.153Z,7.90
2018-12-17T13:02:10.818Z,8.30
2018-12-17T13:04:13.480Z,8.70
2018-12-17T13:06:16.035Z,8.40
2018-12-17T13:08:18.731Z,8.70
2018-12-17T13:10:21.255Z,9.20
2018-12-17T13:12:23.919Z,9.30
2018-12-17T13:14:26.502Z,9.10
2018-12-17T13:16:29.075Z,8.90
2018-12-17T13:18:31.610Z,8.50
2018-12-17T13:20:34.126Z,8.80
2018-12-17T13:22:36.770Z,8.50
2018-12-17T13:24:39.433Z,8.80
2018-12-17T13:26:42.066Z,9.10
2018-12-17T13:28:44.651Z,9.20
2018-12-17T13:30:47.157Z,9.20
2018-12-17T13:32:49.762Z,9.20
2018-12-17T13:34:52.278Z,9.40
2018-12-17T13:36:54.864Z,9.50
2018-12-17T13:38:57.397Z,9.60
2018-12-17T13:41:00.049Z,9.40
2018-12-17T13:43:02.726Z,9.30
2018-12-17T13:45:05.842Z,9.50
2018-12-17T13:47:08.366Z,9.80
2018-12-17T13:49:11.039Z,10.10
2018-12-17T13:51:32.673Z,9.80
2018-12-17T13:53:35.230Z,9.60
2018-12-17T13:55:37.789Z,9.80
2018-12-17T13:57:40.355Z,10.00
2018-12-17T13:59:43.159Z,10.10
2018-12-17T14:01:51.440Z,10.20
2018-12-17T14:03:50.349Z,10.20
2018-12-17T14:05:52.873Z,9.60
2018-12-17T14:07:55.477Z,9.20
2018-12-17T14:10:03.835Z,8.70
2018-12-17T14:12:06.445Z,9.00
2018-12-17T14:14:09.028Z,8.90
2018-12-17T14:16:14.740Z,9.30
2018-12-17T14:18:23.347Z,9.60
2018-12-17T14:20:31.761Z,9.70
2018-12-17T14:22:34.274Z,9.40
2018-12-17T14:24:36.987Z,9.60
2018-12-17T14:26:39.518Z,9.10
2018-12-17T14:28:42.073Z,9.80
2018-12-17T14:30:44.634Z,9.90
2018-12-17T14:32:47.240Z,10.00
2018-12-17T14:34:49.974Z,10.10
2018-12-17T14:36:52.609Z,10.10
2018-12-17T14:38:55.246Z,9.50
2018-12-17T14:40:58.066Z,8.80
2018-12-17T14:43:00.708Z,8.80
2018-12-17T14:45:04.304Z,9.10
2018-12-17T14:47:06.885Z,9.00
2018-12-17T14:49:09.419Z,9.20
2018-12-17T14:51:11.987Z,9.40
2018-12-17T14:53:14.545Z,9.30
2018-12-17T14:55:17.865Z,9.40
2018-12-17T14:57:20.403Z,9.60
2018-12-17T14:59:22.957Z,9.60
2018-12-17T15:01:25.622Z,9.80
2018-12-17T15:03:28.246Z,9.60
2018-12-17T15:05:30.863Z,9.70
2018-12-17T15:07:33.479Z,9.80
2018-12-17T15:09:36.017Z,9.90
2018-12-17T15:11:38.764Z,9.80
2018-12-17T15:13:41.466Z,9.50
2018-12-17T15:15:44.193Z,9.60
2018-12-17T15:17:46.965Z,9.80
2018-12-17T15:19:49.510Z,9.90
2018-12-17T15:21:52.129Z,9.90
2018-12-17T15:23:54.797Z,9.80
2018-12-17T15:25:57.327Z,9.80
2018-12-17T15:27:59.909Z,9.80
2018-12-17T15:30:02.457Z,9.80
2018-12-17T15:32:05.157Z,9.80
2018-12-17T15:34:07.758Z,9.80
2018-12-17T15:36:10.482Z,9.90
2018-12-17T15:38:13.171Z,9.90
2018-12-17T15:40:15.681Z,9.90
2018-12-17T15:42:18.333Z,9.60
2018-12-17T15:44:20.848Z,9.20
2018-12-17T15:46:23.438Z,8.80
2018-12-17T15:48:25.998Z,9.00
2018-12-17T15:50:28.514Z,8.80
2018-12-17T15:52:31.113Z,8.80
2018-12-17T15:54:33.913Z,9.10
2018-12-17T15:56:36.628Z,9.10
2018-12-17T15:58:39.198Z,9.20
2018-12-17T16:00:41.774Z,9.40
2018-12-17T16:02:44.399Z,9.50
2018-12-17T16:04:47.199Z,9.60
2018-12-17T16:06:49.729Z,9.60
2018-12-17T16:08:52.273Z,9.70
2018-12-17T16:10:54.836Z,9.80
2018-12-17T16:12:57.374Z,9.80
2018-12-17T16:15:00.163Z,9.70
2018-12-17T16:17:02.705Z,9.60
2018-12-17T16:19:05.408Z,9.70
2018-12-17T16:21:08.070Z,9.80
2018-12-17T16:23:10.713Z,9.50
2018-12-17T16:25:13.525Z,9.60
2018-12-17T16:27:19.357Z,9.50
2018-12-17T16:29:20.769Z,9.50
2018-12-17T16:31:23.403Z,9.30
2018-12-17T16:33:29.915Z,9.40
2018-12-17T16:35:30.498Z,9.40
2018-12-17T16:37:33.025Z,9.40
2018-12-17T16:39:35.658Z,9.50
2018-12-17T16:41:38.241Z,9.60
2018-12-17T16:43:40.766Z,9.50
2018-12-17T16:45:43.435Z,9.40
2018-12-17T16:47:45.971Z,9.50
2018-12-17T16:49:48.979Z,9.40
2018-12-17T16:51:51.632Z,9.20
2018-12-17T16:53:54.278Z,9.00
2018-12-17T16:55:56.889Z,9.20
2018-12-17T16:57:59.516Z,9.30
2018-12-17T17:00:02.162Z,9.50
2018-12-17T17:02:04.894Z,9.60
2018-12-17T17:04:07.453Z,9.70
2018-12-17T17:06:10.179Z,9.80
2018-12-17T17:08:12.755Z,9.80
2018-12-17T17:10:15.392Z,9.80
2018-12-17T17:12:17.955Z,9.90
2018-12-17T17:14:20.495Z,9.90
2018-12-17T17:16:23.065Z,10.00
2018-12-17T17:18:25.693Z,9.90
2018-12-17T17:20:28.310Z,9.90
2018-12-17T17:22:30.849Z,9.80
2018-12-17T17:24:33.392Z,9.40
2018-12-17T17:26:36.207Z,9.50
2018-12-17T17:28:38.933Z,9.50
2018-12-17T17:30:41.541Z,9.50
2018-12-17T17:32:44.102Z,9.50
2018-12-17T17:34:46.654Z,9.40
2018-12-17T17:36:49.163Z,9.30
2018-12-17T17:38:51.825Z,9.20
2018-12-17T17:40:54.368Z,9.00
2018-12-17T17:42:57.041Z,9.00
2018-12-17T17:44:59.556Z,9.10
2018-12-17T17:47:02.174Z,9.10
2018-12-17T17:49:04.727Z,9.10
2018-12-17T17:51:07.332Z,9.10
2018-12-17T17:53:09.968Z,9.00
2018-12-17T17:55:12.510Z,9.00
2018-12-17T17:57:15.036Z,9.00
2018-12-17T17:59:17.574Z,9.00
2018-12-17T18:01:20.155Z,9.00
2018-12-17T18:03:22.722Z,8.90
2018-12-17T18:05:25.409Z,8.90
2018-12-17T18:07:28.073Z,8.80
2018-12-17T18:09:30.703Z,8.80
2018-12-17T18:11:33.401Z,8.70
2018-12-17T18:13:36.103Z,8.70
2018-12-17T18:15:40.981Z,8.70
2018-12-17T18:17:43.327Z,8.70
2018-12-17T18:19:45.957Z,8.60
2018-12-17T18:21:48.594Z,8.60
2018-12-17T18:23:51.137Z,8.60
2018-12-17T18:25:53.739Z,8.50
2018-12-17T18:27:56.382Z,8.40
2018-12-17T18:29:58.981Z,8.40
2018-12-17T18:32:01.536Z,8.40
2018-12-17T18:34:04.402Z,8.30
2018-12-17T18:36:07.021Z,8.20
2018-12-17T18:38:09.682Z,8.20
2018-12-17T18:40:12.439Z,8.30
2018-12-17T18:42:15.056Z,8.30
2018-12-17T18:44:17.713Z,8.30
2018-12-17T18:46:20.276Z,8.20
2018-12-17T18:50:31.635Z,8.10
2018-12-17T18:52:34.226Z,8.10
2018-12-17T18:54:36.802Z,8.10
2018-12-17T18:56:39.463Z,8.10
2018-12-17T18:58:42.017Z,8.10
2018-12-17T19:00:44.562Z,8.10
2018-12-17T19:02:47.097Z,8.00
2018-12-17T19:04:49.620Z,8.00
2018-12-17T19:06:52.298Z,7.90
2018-12-17T19:08:55.032Z,7.90
2018-12-17T19:10:57.561Z,7.90
2018-12-17T19:13:00.139Z,7.90
2018-12-17T19:15:02.787Z,8.00
2018-12-17T19:17:05.313Z,7.90
2018-12-17T19:19:07.957Z,7.90
2018-12-17T19:21:10.523Z,7.80
2018-12-17T19:23:13.150Z,7.90
2018-12-17T19:25:15.723Z,7.80
2018-12-17T19:27:18.391Z,7.80
2018-12-17T19:29:21.011Z,7.80
2018-12-17T19:31:23.823Z,7.80
2018-12-17T19:33:26.502Z,7.90
2018-12-17T19:35:29.236Z,8.00
2018-12-17T19:37:31.864Z,8.00
2018-12-17T19:39:34.492Z,8.10
2018-12-17T19:41:37.005Z,8.20
2018-12-17T19:43:39.619Z,8.10
2018-12-17T19:45:42.189Z,8.20
2018-12-17T19:47:44.819Z,8.10
2018-12-17T19:49:47.471Z,8.00
2018-12-17T19:51:49.994Z,8.00
2018-12-17T19:53:52.615Z,9.60
2018-12-17T19:55:55.292Z,8.10
2018-12-17T19:57:57.988Z,8.10
2018-12-17T20:00:00.533Z,8.10
2018-12-17T20:02:03.173Z,8.10
2018-12-17T20:04:05.743Z,8.10
2018-12-17T20:06:08.343Z,8.10
2018-12-17T20:08:10.996Z,8.20
2018-12-17T20:10:15.694Z,8.30
2018-12-17T20:12:18.214Z,8.30
2018-12-17T20:14:20.779Z,8.20
2018-12-17T20:16:23.445Z,8.20
2018-12-17T20:18:26.230Z,8.30
2018-12-17T20:20:28.870Z,8.30
2018-12-17T20:22:31.439Z,8.20
2018-12-17T20:24:34.127Z,8.20
2018-12-17T20:26:36.659Z,8.30
2018-12-17T20:28:39.175Z,8.30
2018-12-17T20:30:41.783Z,8.20
2018-12-17T20:32:44.306Z,8.30
2018-12-17T20:34:46.864Z,8.20
2018-12-17T20:36:49.486Z,8.20
2018-12-17T20:38:52.178Z,8.00
2018-12-17T20:40:54.750Z,8.00
2018-12-17T20:42:57.518Z,7.90
2018-12-17T20:45:00.235Z,7.90
2018-12-17T20:47:02.946Z,7.90
2018-12-17T20:49:05.652Z,8.00
2018-12-17T20:51:08.298Z,8.00
2018-12-17T20:53:10.821Z,8.00
2018-12-17T20:55:13.580Z,8.10
2018-12-17T20:57:16.156Z,8.20
2018-12-17T20:59:18.779Z,8.00
2018-12-17T21:01:21.695Z,8.20
2018-12-17T21:03:24.357Z,8.40
2018-12-17T21:05:26.919Z,8.40
2018-12-17T21:07:29.615Z,8.30
2018-12-17T21:09:32.178Z,8.30
2018-12-17T21:11:34.749Z,8.50
2018-12-17T21:13:37.323Z,8.60
2018-12-17T21:15:39.882Z,8.70
2018-12-17T21:17:42.520Z,8.70
2018-12-17T21:19:45.174Z,8.60
2018-12-17T21:21:47.915Z,8.70
2018-12-17T21:23:50.570Z,8.80
2018-12-17T21:25:53.186Z,8.80
2018-12-17T21:27:55.827Z,8.90
2018-12-17T21:29:58.492Z,8.90
2018-12-17T21:32:01.042Z,9.00
2018-12-17T21:34:03.728Z,9.00
2018-12-17T21:36:06.403Z,9.00
2018-12-17T21:38:09.137Z,8.90
2018-12-17T21:40:11.846Z,9.00
2018-12-17T21:42:14.479Z,9.00
2018-12-17T21:44:17.155Z,9.00
2018-12-17T21:46:19.796Z,9.00
2018-12-17T21:48:22.306Z,9.00
2018-12-17T21:50:24.844Z,9.00
2018-12-17T21:52:27.401Z,8.90
2018-12-17T21:54:30.048Z,8.90
2018-12-17T21:56:32.716Z,8.90
2018-12-17T21:58:35.283Z,8.90
2018-12-17T22:00:37.814Z,8.80
2018-12-17T22:02:40.362Z,8.80
2018-12-17T22:04:42.886Z,8.80
2018-12-17T22:06:45.501Z,8.70
2018-12-17T22:08:48.107Z,8.70
2018-12-17T22:10:50.751Z,8.60
2018-12-17T22:12:53.522Z,8.60
2018-12-17T22:14:56.191Z,8.60
2018-12-17T22:16:58.825Z,8.50
2018-12-17T22:19:01.405Z,8.50
2018-12-17T22:21:04.178Z,8.50
2018-12-17T22:23:06.809Z,8.40
2018-12-17T22:25:09.539Z,8.50
2018-12-17T22:27:12.246Z,8.50
2018-12-17T22:29:14.846Z,8.50
2018-12-17T22:31:17.531Z,8.50
2018-12-17T22:33:20.308Z,8.50
2018-12-17T22:35:22.880Z,8.40
2018-12-17T22:37:25.432Z,8.40
2018-12-17T22:39:28.119Z,8.40
2018-12-17T22:41:30.628Z,8.40
2018-12-17T22:43:33.194Z,8.50
2018-12-17T22:45:36.303Z,8.50
2018-12-17T22:47:38.908Z,8.50
2018-12-17T22:49:41.496Z,8.50
2018-12-17T22:51:44.305Z,8.50
2018-12-17T22:53:46.953Z,8.60
2018-12-17T22:55:49.614Z,8.60
2018-12-17T22:57:52.206Z,8.60
2018-12-17T22:59:54.774Z,8.70
2018-12-17T23:01:57.476Z,8.70
2018-12-17T23:04:00.133Z,8.70
2018-12-17T23:06:02.690Z,8.60
2018-12-17T23:08:05.303Z,8.50
2018-12-17T23:10:19.681Z,8.40
2018-12-17T23:12:33.984Z,8.30
2018-12-17T23:14:48.385Z,8.30
2018-12-17T23:17:02.642Z,7.90
2018-12-17T23:19:04.792Z,8.00
2018-12-17T23:21:07.425Z,7.80
2018-12-17T23:23:10.669Z,8.00
2018-12-17T23:25:13.199Z,7.90
2018-12-17T23:27:15.838Z,7.90
2018-12-17T23:29:18.660Z,8.10
2018-12-17T23:31:21.254Z,8.10
2018-12-17T23:33:23.904Z,7.80
2018-12-17T23:35:26.592Z,8.00
2018-12-17T23:37:29.122Z,8.20
2018-12-17T23:39:31.866Z,8.40
2018-12-17T23:41:34.385Z,8.40
2018-12-17T23:43:37.118Z,8.60
2018-12-17T23:45:39.628Z,8.70
2018-12-17T23:47:42.157Z,8.70
2018-12-17T23:49:44.818Z,8.60
2018-12-17T23:51:47.692Z,8.60
2018-12-17T23:53:50.222Z,8.60
2018-12-17T23:55:52.798Z,8.60
2018-12-17T23:57:55.433Z,8.60
2018-12-17T23:59:58.054Z,8.70
